Weather at Pogradec Heliport

Public forecast

Using degrees Celsius for public forecast. Weather courtesy of forecast.io.

Closest aviation weather report (METAR) to Pogradec Heliport

Closest report is Ohrid St. Paul the Apostle Airport, 17.0 nm (31.4 km) NNE.

2024/05/28 16:50 (retrieved 30 minutes ago)

LWOH 281650Z 17010KT 140V210 9999 FEW040 SCT080 18/10 Q1015

Closest aviation forecast (TAF) to Pogradec Heliport

Closest forecast is Ohrid St. Paul the Apostle Airport, 17.0 nm (31.4 km) NNE.

2024/05/28 15:26 (retrieved 2 hours ago)

TAF LWOH 281420Z 2815/2915 34008KT 9999 SCT050 BKN090 TEMPO 2815/2820 VRB15KT TSRA FEW033CB BKN040